N816LP KPVD-KPWM
Flight info
| Callsign | N816LP |
|---|---|
| Flight time | 0h 48m |
| Altitude | 17000 |
| Route | KPVD LFV KPWM |
| Aircraft | B350/L-VGDW/C |
Departure
| Time | 2026-04-27 01:01 |
|---|---|
| Airport | Rhode Island T. F. Green International Airport (KPVD) |
Arrival
| Time | 2026-04-27 01:49 |
|---|---|
| Airport | Portland International Jetport (KPWM) |
| Time | Latitude | Longitude | Altitude | Speed | Heading |
|---|---|---|---|---|---|
| 2026-04-27 00:41 | 41.73145 | -71.42673 | 58 ft | 0 kts | 228° |
| 2026-04-27 00:51 | 41.73150 | -71.42667 | 56 ft | 3 kts | 228° |
| 2026-04-27 00:51 | 41.73161 | -71.42649 | 55 ft | 1 kts | 228° |
| 2026-04-27 00:54 | 41.73164 | -71.42665 | 56 ft | 3 kts | 314° |
| 2026-04-27 00:55 | 41.73174 | -71.42684 | 58 ft | 0 kts | 284° |
| 2026-04-27 00:55 | 41.73169 | -71.42733 | 59 ft | 14 kts | 232° |
| 2026-04-27 00:56 | 41.73053 | -71.42732 | 53 ft | 21 kts | 167° |
| 2026-04-27 00:56 | 41.72893 | -71.42681 | 54 ft | 21 kts | 166° |
| 2026-04-27 00:56 | 41.72786 | -71.42627 | 54 ft | 19 kts | 141° |
| 2026-04-27 00:56 | 41.72670 | -71.42505 | 50 ft | 23 kts | 141° |
| 2026-04-27 00:57 | 41.72551 | -71.42378 | 53 ft | 19 kts | 140° |
| 2026-04-27 00:57 | 41.72452 | -71.42272 | 51 ft | 12 kts | 140° |
| 2026-04-27 00:57 | 41.72362 | -71.42271 | 54 ft | 15 kts | 225° |
| 2026-04-27 00:57 | 41.72297 | -71.42384 | 58 ft | 13 kts | 231° |
| 2026-04-27 00:58 | 41.72248 | -71.42389 | 60 ft | 10 kts | 147° |
| 2026-04-27 00:58 | 41.72170 | -71.42308 | 61 ft | 18 kts | 142° |
| 2026-04-27 00:58 | 41.72103 | -71.42235 | 61 ft | 11 kts | 139° |
| 2026-04-27 00:58 | 41.72020 | -71.42148 | 62 ft | 19 kts | 142° |
| 2026-04-27 00:59 | 41.71893 | -71.42015 | 59 ft | 25 kts | 141° |
| 2026-04-27 00:59 | 41.71833 | -71.41916 | 59 ft | 7 kts | 79° |
| 2026-04-27 00:59 | 41.71839 | -71.41891 | 57 ft | 14 kts | 66° |
| 2026-04-27 00:59 | 41.71900 | -71.41874 | 58 ft | 3 kts | 315° |
| 2026-04-27 01:00 | 41.71902 | -71.41877 | 58 ft | 0 kts | 316° |
| 2026-04-27 01:00 | 41.72178 | -71.42172 | 59 ft | 104 kts | 321° |
| 2026-04-27 01:00 | 41.72920 | -71.42976 | 170 ft | 161 kts | 319° |
| 2026-04-27 01:00 | 41.73798 | -71.44031 | 621 ft | 175 kts | 318° |
| 2026-04-27 01:01 | 41.74723 | -71.45193 | 992 ft | 188 kts | 319° |
| 2026-04-27 01:01 | 41.75546 | -71.46562 | 1371 ft | 198 kts | 290° |
| 2026-04-27 01:01 | 41.75692 | -71.48414 | 1757 ft | 203 kts | 265° |
| 2026-04-27 01:01 | 41.75049 | -71.50051 | 2152 ft | 204 kts | 217° |
| 2026-04-27 01:02 | 41.73731 | -71.50587 | 2540 ft | 200 kts | 170° |
| 2026-04-27 01:02 | 41.72581 | -71.49705 | 2933 ft | 192 kts | 122° |
| 2026-04-27 01:02 | 41.71982 | -71.48118 | 3331 ft | 192 kts | 111° |
| 2026-04-27 01:02 | 41.71468 | -71.46469 | 3716 ft | 192 kts | 109° |
| 2026-04-27 01:03 | 41.70970 | -71.44804 | 4088 ft | 193 kts | 108° |
| 2026-04-27 01:03 | 41.70517 | -71.43113 | 4485 ft | 191 kts | 95° |
| 2026-04-27 01:03 | 41.70755 | -71.41418 | 4885 ft | 186 kts | 69° |
| 2026-04-27 01:03 | 41.71195 | -71.39779 | 5269 ft | 187 kts | 68° |
| 2026-04-27 01:04 | 41.71649 | -71.38167 | 5652 ft | 188 kts | 67° |
| 2026-04-27 01:04 | 41.72119 | -71.36536 | 6043 ft | 188 kts | 66° |
| 2026-04-27 01:04 | 41.72586 | -71.34897 | 6439 ft | 189 kts | 68° |
| 2026-04-27 01:04 | 41.72968 | -71.33204 | 6817 ft | 193 kts | 71° |
| 2026-04-27 01:05 | 41.73351 | -71.31452 | 7185 ft | 199 kts | 70° |
| 2026-04-27 01:05 | 41.73769 | -71.29665 | 7563 ft | 203 kts | 70° |
| 2026-04-27 01:05 | 41.74188 | -71.27839 | 7944 ft | 207 kts | 71° |
| 2026-04-27 01:05 | 41.74607 | -71.25989 | 8325 ft | 209 kts | 71° |
| 2026-04-27 01:06 | 41.75034 | -71.24118 | 8716 ft | 210 kts | 71° |
| 2026-04-27 01:06 | 41.75463 | -71.22239 | 9108 ft | 212 kts | 71° |
| 2026-04-27 01:06 | 41.75893 | -71.20349 | 9503 ft | 213 kts | 71° |
| 2026-04-27 01:06 | 41.76325 | -71.18448 | 9903 ft | 213 kts | 71° |
| 2026-04-27 01:07 | 41.76759 | -71.16541 | 10297 ft | 214 kts | 71° |
| 2026-04-27 01:07 | 41.77192 | -71.14627 | 10659 ft | 215 kts | 71° |
| 2026-04-27 01:07 | 41.77623 | -71.12727 | 11022 ft | 217 kts | 70° |
| 2026-04-27 01:07 | 41.78063 | -71.10788 | 11395 ft | 218 kts | 70° |
| 2026-04-27 01:08 | 41.78505 | -71.08835 | 11775 ft | 220 kts | 70° |
| 2026-04-27 01:08 | 41.78950 | -71.06867 | 12157 ft | 222 kts | 70° |
| 2026-04-27 01:08 | 41.79399 | -71.04879 | 12545 ft | 224 kts | 70° |
| 2026-04-27 01:08 | 41.79851 | -71.02875 | 12939 ft | 225 kts | 69° |
| 2026-04-27 01:09 | 41.80308 | -71.00849 | 13346 ft | 227 kts | 69° |
| 2026-04-27 01:09 | 41.80767 | -70.98812 | 13743 ft | 229 kts | 69° |
| 2026-04-27 01:09 | 41.81229 | -70.96757 | 14134 ft | 231 kts | 69° |
| 2026-04-27 01:09 | 41.81696 | -70.94687 | 14496 ft | 232 kts | 69° |
| 2026-04-27 01:10 | 41.82164 | -70.92605 | 14857 ft | 234 kts | 69° |
| 2026-04-27 01:10 | 41.82631 | -70.90517 | 15224 ft | 235 kts | 70° |
| 2026-04-27 01:10 | 41.83104 | -70.88412 | 15602 ft | 236 kts | 70° |
| 2026-04-27 01:10 | 41.83570 | -70.86330 | 15976 ft | 236 kts | 70° |
| 2026-04-27 01:11 | 41.84043 | -70.84217 | 16348 ft | 237 kts | 70° |
| 2026-04-27 01:11 | 41.84519 | -70.82087 | 16690 ft | 240 kts | 70° |
| 2026-04-27 01:11 | 41.85007 | -70.79905 | 16858 ft | 249 kts | 71° |
| 2026-04-27 01:11 | 41.85512 | -70.77633 | 16927 ft | 258 kts | 71° |
| 2026-04-27 01:12 | 41.86035 | -70.75287 | 16960 ft | 266 kts | 71° |
| 2026-04-27 01:12 | 41.86570 | -70.72884 | 16977 ft | 271 kts | 71° |
| 2026-04-27 01:12 | 41.87115 | -70.70435 | 16986 ft | 275 kts | 71° |
| 2026-04-27 01:12 | 41.87665 | -70.67961 | 16989 ft | 278 kts | 71° |
| 2026-04-27 01:13 | 41.88218 | -70.65465 | 16991 ft | 280 kts | 72° |
| 2026-04-27 01:13 | 41.88776 | -70.62956 | 16991 ft | 281 kts | 72° |
| 2026-04-27 01:13 | 41.89333 | -70.60437 | 16993 ft | 282 kts | 72° |
| 2026-04-27 01:13 | 41.89892 | -70.57910 | 16991 ft | 282 kts | 72° |
| 2026-04-27 01:14 | 41.90452 | -70.55379 | 16993 ft | 283 kts | 72° |
| 2026-04-27 01:14 | 41.91010 | -70.52846 | 16992 ft | 283 kts | 72° |
| 2026-04-27 01:14 | 41.91569 | -70.50312 | 16992 ft | 283 kts | 72° |
| 2026-04-27 01:14 | 41.92127 | -70.47778 | 16994 ft | 283 kts | 72° |
| 2026-04-27 01:15 | 41.92684 | -70.45244 | 16994 ft | 283 kts | 72° |
| 2026-04-27 01:15 | 41.93234 | -70.42741 | 17009 ft | 283 kts | 73° |
| 2026-04-27 01:15 | 41.93790 | -70.40203 | 17010 ft | 283 kts | 73° |
| 2026-04-27 01:15 | 41.94347 | -70.37666 | 17012 ft | 283 kts | 73° |
| 2026-04-27 01:16 | 41.94903 | -70.35123 | 17011 ft | 283 kts | 73° |
| 2026-04-27 01:16 | 41.95456 | -70.32591 | 17012 ft | 283 kts | 73° |
| 2026-04-27 01:16 | 41.96012 | -70.30047 | 17016 ft | 282 kts | 73° |
| 2026-04-27 01:16 | 41.96557 | -70.27547 | 17018 ft | 282 kts | 73° |
| 2026-04-27 01:17 | 41.97108 | -70.25012 | 17017 ft | 282 kts | 73° |
| 2026-04-27 01:17 | 41.97661 | -70.22475 | 17019 ft | 282 kts | 73° |
| 2026-04-27 01:17 | 41.98211 | -70.19942 | 17019 ft | 282 kts | 73° |
| 2026-04-27 01:17 | 41.98760 | -70.17409 | 17021 ft | 283 kts | 73° |
| 2026-04-27 01:18 | 41.99312 | -70.14869 | 17018 ft | 283 kts | 73° |
| 2026-04-27 01:18 | 41.99860 | -70.12333 | 17019 ft | 283 kts | 73° |
| 2026-04-27 01:18 | 42.00411 | -70.09788 | 17018 ft | 283 kts | 74° |
| 2026-04-27 01:18 | 42.00959 | -70.07251 | 17019 ft | 283 kts | 73° |
| 2026-04-27 01:19 | 42.01842 | -70.04916 | 17022 ft | 283 kts | 46° |
| 2026-04-27 01:19 | 42.03522 | -70.03617 | 17025 ft | 283 kts | 12° |
| 2026-04-27 01:19 | 42.05489 | -70.03602 | 17020 ft | 284 kts | 355° |
| 2026-04-27 01:19 | 42.07452 | -70.03927 | 17015 ft | 284 kts | 353° |
| 2026-04-27 01:20 | 42.09384 | -70.04313 | 17016 ft | 285 kts | 352° |
| 2026-04-27 01:20 | 42.11344 | -70.04733 | 17019 ft | 285 kts | 351° |
| 2026-04-27 01:20 | 42.13301 | -70.05167 | 17018 ft | 285 kts | 351° |
| 2026-04-27 01:20 | 42.15259 | -70.05609 | 17016 ft | 285 kts | 351° |
| 2026-04-27 01:21 | 42.17219 | -70.06049 | 17020 ft | 285 kts | 353° |
| 2026-04-27 01:21 | 42.19198 | -70.06307 | 17021 ft | 285 kts | 356° |
| 2026-04-27 01:21 | 42.21169 | -70.06664 | 17017 ft | 286 kts | 352° |
| 2026-04-27 01:21 | 42.23140 | -70.06993 | 17021 ft | 285 kts | 355° |
| 2026-04-27 01:22 | 42.25114 | -70.07307 | 17020 ft | 285 kts | 353° |
| 2026-04-27 01:22 | 42.27084 | -70.07645 | 17019 ft | 285 kts | 354° |
| 2026-04-27 01:22 | 42.29058 | -70.07961 | 17019 ft | 285 kts | 354° |
| 2026-04-27 01:22 | 42.31006 | -70.08288 | 17018 ft | 285 kts | 354° |
| 2026-04-27 01:23 | 42.32975 | -70.08613 | 17015 ft | 285 kts | 354° |
| 2026-04-27 01:23 | 42.34946 | -70.08939 | 17018 ft | 285 kts | 354° |
| 2026-04-27 01:23 | 42.36914 | -70.09267 | 17016 ft | 285 kts | 354° |
| 2026-04-27 01:23 | 42.38881 | -70.09590 | 17016 ft | 285 kts | 354° |
| 2026-04-27 01:24 | 42.40847 | -70.09917 | 17016 ft | 284 kts | 354° |
| 2026-04-27 01:24 | 42.42813 | -70.10244 | 17017 ft | 284 kts | 354° |
| 2026-04-27 01:24 | 42.44775 | -70.10570 | 17014 ft | 284 kts | 354° |
| 2026-04-27 01:24 | 42.46078 | -70.10786 | 17015 ft | 284 kts | 354° |
| 2026-04-27 01:25 | 42.48042 | -70.11112 | 17013 ft | 284 kts | 354° |
| 2026-04-27 01:25 | 42.50003 | -70.11439 | 17013 ft | 284 kts | 354° |
| 2026-04-27 01:25 | 42.51966 | -70.11766 | 17012 ft | 284 kts | 354° |
| 2026-04-27 01:25 | 42.53928 | -70.12091 | 17014 ft | 284 kts | 354° |
| 2026-04-27 01:26 | 42.55886 | -70.12419 | 17013 ft | 283 kts | 354° |
| 2026-04-27 01:26 | 42.57825 | -70.12741 | 17015 ft | 283 kts | 354° |
| 2026-04-27 01:26 | 42.59788 | -70.13070 | 17015 ft | 283 kts | 354° |
| 2026-04-27 01:26 | 42.61745 | -70.13395 | 17016 ft | 283 kts | 354° |
| 2026-04-27 01:27 | 42.63698 | -70.13723 | 17017 ft | 283 kts | 354° |
| 2026-04-27 01:27 | 42.65655 | -70.14051 | 17016 ft | 283 kts | 354° |
| 2026-04-27 01:27 | 42.67609 | -70.14374 | 17015 ft | 283 kts | 354° |
| 2026-04-27 01:27 | 42.69561 | -70.14704 | 17015 ft | 283 kts | 354° |
| 2026-04-27 01:28 | 42.71513 | -70.15031 | 17012 ft | 282 kts | 354° |
| 2026-04-27 01:28 | 42.73465 | -70.15356 | 17014 ft | 282 kts | 354° |
| 2026-04-27 01:28 | 42.75390 | -70.15681 | 17016 ft | 282 kts | 354° |
| 2026-04-27 01:28 | 42.77341 | -70.16008 | 17014 ft | 282 kts | 354° |
| 2026-04-27 01:29 | 42.79289 | -70.16335 | 17015 ft | 282 kts | 355° |
| 2026-04-27 01:29 | 42.81242 | -70.16663 | 17021 ft | 282 kts | 355° |
| 2026-04-27 01:29 | 42.83191 | -70.16991 | 17017 ft | 282 kts | 355° |
| 2026-04-27 01:29 | 42.85135 | -70.17317 | 17018 ft | 282 kts | 355° |
| 2026-04-27 01:30 | 42.87081 | -70.17646 | 17020 ft | 281 kts | 355° |
| 2026-04-27 01:30 | 42.89027 | -70.17973 | 17017 ft | 281 kts | 355° |
| 2026-04-27 01:30 | 42.90969 | -70.18301 | 17019 ft | 281 kts | 355° |
| 2026-04-27 01:30 | 42.92888 | -70.18624 | 17019 ft | 281 kts | 355° |
| 2026-04-27 01:31 | 42.94827 | -70.18951 | 17018 ft | 281 kts | 355° |
| 2026-04-27 01:31 | 42.96765 | -70.19279 | 17019 ft | 281 kts | 355° |
| 2026-04-27 01:31 | 42.98702 | -70.19606 | 17018 ft | 280 kts | 355° |
| 2026-04-27 01:31 | 43.00607 | -70.20171 | 17022 ft | 283 kts | 338° |
| 2026-04-27 01:32 | 43.02353 | -70.21428 | 17018 ft | 284 kts | 333° |
| 2026-04-27 01:32 | 43.04075 | -70.22776 | 17017 ft | 284 kts | 332° |
| 2026-04-27 01:32 | 43.05782 | -70.24146 | 17018 ft | 284 kts | 332° |
| 2026-04-27 01:32 | 43.07533 | -70.25383 | 17018 ft | 283 kts | 339° |
| 2026-04-27 01:33 | 43.09325 | -70.26514 | 17018 ft | 284 kts | 336° |
| 2026-04-27 01:33 | 43.11096 | -70.27719 | 17016 ft | 283 kts | 337° |
| 2026-04-27 01:33 | 43.12856 | -70.28865 | 17015 ft | 284 kts | 337° |
| 2026-04-27 01:33 | 43.14635 | -70.30048 | 17015 ft | 284 kts | 336° |
| 2026-04-27 01:34 | 43.16416 | -70.31228 | 17016 ft | 284 kts | 337° |
| 2026-04-27 01:34 | 43.18193 | -70.32402 | 17017 ft | 284 kts | 337° |
| 2026-04-27 01:34 | 43.19971 | -70.33583 | 17014 ft | 284 kts | 337° |
| 2026-04-27 01:34 | 43.21751 | -70.34763 | 17016 ft | 284 kts | 337° |
| 2026-04-27 01:35 | 43.23531 | -70.35944 | 17016 ft | 284 kts | 337° |
| 2026-04-27 01:35 | 43.25314 | -70.37129 | 17016 ft | 284 kts | 337° |
| 2026-04-27 01:35 | 43.27093 | -70.38312 | 17016 ft | 284 kts | 337° |
| 2026-04-27 01:35 | 43.28876 | -70.39496 | 17012 ft | 285 kts | 337° |
| 2026-04-27 01:36 | 43.30657 | -70.40682 | 17016 ft | 285 kts | 337° |
| 2026-04-27 01:36 | 43.32442 | -70.41871 | 16903 ft | 287 kts | 337° |
| 2026-04-27 01:36 | 43.34254 | -70.43069 | 16508 ft | 290 kts | 337° |
| 2026-04-27 01:36 | 43.36051 | -70.44277 | 16129 ft | 292 kts | 337° |
| 2026-04-27 01:37 | 43.37843 | -70.45466 | 15693 ft | 279 kts | 337° |
| 2026-04-27 01:37 | 43.39552 | -70.46620 | 15162 ft | 268 kts | 336° |
| 2026-04-27 01:37 | 43.41205 | -70.47727 | 14644 ft | 260 kts | 337° |
| 2026-04-27 01:37 | 43.42828 | -70.48803 | 14130 ft | 255 kts | 336° |
| 2026-04-27 01:38 | 43.44389 | -70.49849 | 13580 ft | 247 kts | 336° |
| 2026-04-27 01:38 | 43.45908 | -70.50867 | 12964 ft | 240 kts | 337° |
| 2026-04-27 01:38 | 43.47403 | -70.51866 | 12277 ft | 237 kts | 337° |
| 2026-04-27 01:38 | 43.48880 | -70.52854 | 11611 ft | 234 kts | 337° |
| 2026-04-27 01:39 | 43.50340 | -70.53833 | 10956 ft | 231 kts | 337° |
| 2026-04-27 01:39 | 43.51775 | -70.54795 | 10321 ft | 228 kts | 337° |
| 2026-04-27 01:39 | 43.53194 | -70.55746 | 9643 ft | 225 kts | 337° |
| 2026-04-27 01:39 | 43.54573 | -70.56690 | 8960 ft | 224 kts | 332° |
| 2026-04-27 01:40 | 43.55557 | -70.58326 | 8302 ft | 229 kts | 290° |
| 2026-04-27 01:40 | 43.55573 | -70.60498 | 7643 ft | 229 kts | 259° |
| 2026-04-27 01:40 | 43.55204 | -70.62633 | 6984 ft | 228 kts | 256° |
| 2026-04-27 01:40 | 43.54776 | -70.64730 | 6325 ft | 226 kts | 254° |
| 2026-04-27 01:41 | 43.54328 | -70.66805 | 5651 ft | 224 kts | 253° |
| 2026-04-27 01:41 | 43.53992 | -70.68882 | 4984 ft | 221 kts | 274° |
| 2026-04-27 01:41 | 43.54553 | -70.70755 | 4313 ft | 212 kts | 317° |
| 2026-04-27 01:41 | 43.55839 | -70.71534 | 3648 ft | 202 kts | 2° |
| 2026-04-27 01:42 | 43.57079 | -70.70816 | 2996 ft | 196 kts | 50° |
| 2026-04-27 01:42 | 43.57787 | -70.69256 | 2607 ft | 193 kts | 61° |
| 2026-04-27 01:42 | 43.58450 | -70.67642 | 2444 ft | 193 kts | 61° |
| 2026-04-27 01:42 | 43.59124 | -70.66092 | 2367 ft | 189 kts | 58° |
| 2026-04-27 01:43 | 43.59896 | -70.64643 | 2331 ft | 186 kts | 54° |
| 2026-04-27 01:43 | 43.60622 | -70.63188 | 2310 ft | 181 kts | 58° |
| 2026-04-27 01:43 | 43.61311 | -70.61749 | 2296 ft | 178 kts | 57° |
| 2026-04-27 01:43 | 43.62069 | -70.60408 | 2291 ft | 177 kts | 50° |
| 2026-04-27 01:44 | 43.62858 | -70.59115 | 2292 ft | 175 kts | 53° |
| 2026-04-27 01:44 | 43.63544 | -70.57740 | 2288 ft | 173 kts | 64° |
| 2026-04-27 01:44 | 43.64015 | -70.56218 | 2302 ft | 170 kts | 71° |
| 2026-04-27 01:44 | 43.64372 | -70.54681 | 2297 ft | 166 kts | 75° |
| 2026-04-27 01:45 | 43.64657 | -70.53154 | 2293 ft | 163 kts | 77° |
| 2026-04-27 01:45 | 43.64878 | -70.51635 | 2290 ft | 160 kts | 80° |
| 2026-04-27 01:45 | 43.65044 | -70.50125 | 2291 ft | 158 kts | 83° |
| 2026-04-27 01:45 | 43.65158 | -70.48615 | 2293 ft | 158 kts | 85° |
| 2026-04-27 01:46 | 43.65226 | -70.47124 | 2247 ft | 160 kts | 87° |
| 2026-04-27 01:46 | 43.65266 | -70.45556 | 1978 ft | 162 kts | 89° |
| 2026-04-27 01:46 | 43.65286 | -70.44013 | 1748 ft | 159 kts | 90° |
| 2026-04-27 01:46 | 43.65273 | -70.42514 | 1534 ft | 147 kts | 94° |
| 2026-04-27 01:47 | 43.65182 | -70.41188 | 1343 ft | 131 kts | 97° |
| 2026-04-27 01:47 | 43.65079 | -70.39972 | 1170 ft | 124 kts | 97° |
| 2026-04-27 01:47 | 43.64992 | -70.38816 | 1008 ft | 121 kts | 96° |
| 2026-04-27 01:47 | 43.64920 | -70.37670 | 840 ft | 119 kts | 95° |
| 2026-04-27 01:48 | 43.64854 | -70.36582 | 692 ft | 118 kts | 95° |
| 2026-04-27 01:48 | 43.64776 | -70.35449 | 536 ft | 118 kts | 95° |
| 2026-04-27 01:48 | 43.64699 | -70.34322 | 374 ft | 117 kts | 95° |
| 2026-04-27 01:48 | 43.64625 | -70.33211 | 199 ft | 118 kts | 96° |
| 2026-04-27 01:49 | 43.64552 | -70.32132 | 72 ft | 106 kts | 96° |
| 2026-04-27 01:49 | 43.64497 | -70.31283 | 66 ft | 64 kts | 95° |
| 2026-04-27 01:49 | 43.64472 | -70.30918 | 59 ft | 29 kts | 95° |
| 2026-04-27 01:49 | 43.64464 | -70.30734 | 59 ft | 10 kts | 74° |
| 2026-04-27 01:50 | 43.64538 | -70.30691 | 60 ft | 15 kts | 358° |
| 2026-04-27 01:50 | 43.64658 | -70.30700 | 62 ft | 20 kts | 356° |
| 2026-04-27 01:50 | 43.64796 | -70.30703 | 63 ft | 19 kts | 356° |
| 2026-04-27 01:50 | 43.64913 | -70.30713 | 64 ft | 12 kts | 355° |
| 2026-04-27 01:51 | 43.64948 | -70.30720 | 64 ft | 3 kts | 342° |
| 2026-04-27 01:51 | 43.64957 | -70.30758 | 64 ft | 7 kts | 266° |
| 2026-04-27 01:51 | 43.64948 | -70.30815 | 62 ft | 5 kts | 216° |
| 2026-04-27 01:51 | 43.64931 | -70.30817 | 64 ft | 1 kts | 153° |
| 2026-04-27 01:52 | 43.64928 | -70.30812 | 64 ft | 1 kts | 117° |
| 2026-04-27 01:52 | 43.64928 | -70.30805 | 64 ft | 1 kts | 66° |
| 2026-04-27 01:52 | 43.64934 | -70.30799 | 63 ft | 0 kts | 358° |
| 2026-04-27 01:52 | 43.64935 | -70.30799 | 57 ft | 0 kts | 358° |
| 2026-04-27 01:53 | 43.64938 | -70.30799 | 59 ft | 2 kts | 356° |
| 2026-04-27 01:53 | 43.64954 | -70.30837 | 61 ft | 6 kts | 273° |
| 2026-04-27 01:53 | 43.64993 | -70.30852 | 64 ft | 10 kts | 27° |
| 2026-04-27 01:53 | 43.65011 | -70.30765 | 64 ft | 10 kts | 122° |
| 2026-04-27 01:54 | 43.64972 | -70.30752 | 64 ft | 0 kts | 182° |
| 2026-04-27 01:54 | 43.64970 | -70.30752 | 64 ft | 0 kts | 183° |